Teller, Alaska
Current Conditions -  °F | °C
As of 9:58 PM on Thursday 18 Dec 2014 (Local Time) from PATE Reporting Station
Few Clouds Few Clouds  
Wind Chill: 11°   Ceiling: Unl
Heat Index: 21°   Visibility: 10mi
Dew Point: 17°   Wind: 9mph
Humidity: 85%   Direction: 130°SE
Pressure: 29.44"   Gusts: NA
Location:  65.26°N, 166.36°W
Report Text: PATE 190658Z AUTO 13008KT 10SM FEW120 M06/M08 A2944 RMK AO2 SLP983 T10611083 FZRANO
Loading
Personal Weather Stations






























Interactive Weather Map New forecast layout! Learn more

10-Day Weather Forecast

Advertisements
Track Severe Weather on mobile